Decoded Metar for VTSG (KRBI in THAILAND) (IATA:N/A) | Meteo·Mobile Aviation Weather
aviador You're here:

VTSG Decoded Metar

KRBI in THAILAND
Report Time2019-07-22 16:00:00
UTC Time2019-07-22 16:37:12
Flight Rules vfr VFR
WindVRB at 02 kt
Visibility9999 m
Phenomena:N/A
Clouds:Few 020 Hf
Expected CloudBase > 400 ft AGL from Temp-Dew spread
CeilingNone
Temp25°C (ISA +10)
Dew Point24°C (94% RH)
QNH1010 hPa
Density Alt1,752 ft
Elevation82 ft
Report Wrong Elevation
Raw Report
VTSG 221600Z VRB02KT 9999 FEW020 25/24 Q1010 NOSIG=

Extra information for VTSG:More info

Metar Taf Metar & Taf Last 4 Metars F.Rules Stats Wind Profile Meteogram Temp Stats Airport Information Weather charts Add Link Nearby VenuesMetar ALERT Operation Metar Decoded Social comments